Aviation Digital Data Service (ADDS)

Output produced by METARs form (0846 UTC 28 March 2020)
found at http://aviationweather.gov/metar/data/
 
METAR text: KJOT 280835Z AUTO 12011KT 5SM BR OVC011 10/09 A2967 RMK AO2 T00970090
Conditions at: KJOT (JOLIET , IL, US) observed 0835 UTC 28 March 2020
Temperature: 9.7°C (49°F)
Dewpoint: 9.0°C (48°F) [RH = 95%]
Pressure (altimeter): 29.67 inches Hg (1004.8 mb)
Winds: from the ESE (120 degrees) at 13 MPH (11 knots; 5.7 m/s)
Visibility: 5 miles ( 8 km)
Ceiling: 1100 feet AGL
Clouds: overcast cloud deck at 1100 feet AGL
Weather: BR  (mist)